Time;durP1;ratioP1;P1;durP2;ratioP2;P2;SDS_P1;SDS_P2;PMS_P1;PMS_P2;Temp;Humidity;BMP_temperature;BMP_pressure;BME280_temperature;BME280_humidity;BME280_pressure;Samples;Min_cycle;Max_cycle;Signal;HPM_P1;HPM_P2
2021/03/04 00:00:09;;;;;;;49.72;31.83;;;6.80;71.30;;;;;;5060192;28;20021;-72
2021/03/04 00:02:35;;;;;;;45.47;30.35;;;6.90;71.00;;;;;;5060030;28;20025;-72
2021/03/04 00:05:01;;;;;;;49.13;31.73;;;6.90;70.90;;;;;;5059062;28;20029;-72
2021/03/04 00:07:26;;;;;;;48.30;30.85;;;6.90;70.80;;;;;;5060107;28;20401;-72
2021/03/04 00:09:52;;;;;;;50.50;31.95;;;6.90;70.80;;;;;;5060000;28;20025;-72
2021/03/04 00:12:18;;;;;;;48.95;31.70;;;6.90;70.70;;;;;;5059934;28;20036;-72
2021/03/04 00:14:43;;;;;;;45.63;30.25;;;6.90;70.50;;;;;;5059964;28;20029;-72
2021/03/04 00:17:09;;;;;;;52.08;30.70;;;6.90;70.10;;;;;;5059918;28;20071;-72
2021/03/04 00:19:35;;;;;;;47.00;31.42;;;7.00;70.00;;;;;;5059737;28;20455;-72
2021/03/04 00:22:00;;;;;;;56.28;32.38;;;7.00;69.90;;;;;;5060010;28;20025;-72
2021/03/04 00:24:26;;;;;;;45.83;31.42;;;6.90;70.10;;;;;;5058564;28;20325;-72
2021/03/04 00:26:52;;;;;;;51.53;31.98;;;7.00;70.10;;;;;;5059601;28;20398;-72
2021/03/04 00:29:17;;;;;;;51.97;31.70;;;7.00;69.70;;;;;;5059597;28;20028;-72
2021/03/04 00:31:43;;;;;;;49.13;32.33;;;7.00;70.20;;;;;;5059535;28;20410;-72
2021/03/04 00:34:09;;;;;;;49.38;31.88;;;7.00;70.70;;;;;;5059486;28;20074;-72
2021/03/04 00:36:34;;;;;;;49.28;32.05;;;7.00;70.50;;;;;;5059747;28;20159;-72
2021/03/04 00:39:00;;;;;;;52.53;32.67;;;6.90;70.60;;;;;;5059419;28;20024;-72
2021/03/04 00:41:26;;;;;;;47.85;31.35;;;6.90;70.50;;;;;;5059448;28;20436;-72
2021/03/04 00:43:52;;;;;;;52.45;32.80;;;6.90;70.40;;;;;;5059535;28;20017;-72
2021/03/04 00:46:17;;;;;;;50.97;32.22;;;6.90;70.20;;;;;;5058958;28;20037;-72
2021/03/04 00:48:43;;;;;;;52.00;32.10;;;7.00;69.90;;;;;;5059188;28;20294;-72
2021/03/04 00:51:08;;;;;;;54.50;33.55;;;7.00;70.10;;;;;;5059188;28;20029;-72
2021/03/04 00:53:35;;;;;;;46.63;30.38;;;7.00;69.90;;;;;;5058022;28;20021;-72
2021/03/04 00:56:01;;;;;;;56.75;32.42;;;7.00;69.90;;;;;;5059231;28;20051;-72
2021/03/04 00:58:26;;;;;;;50.63;33.00;;;7.00;69.80;;;;;;5059035;28;20024;-72
2021/03/04 01:00:52;;;;;;;55.90;33.05;;;7.00;70.00;;;;;;5059464;28;20147;-72
2021/03/04 01:03:19;;;;;;;48.63;30.48;;;7.00;70.00;;;;;;5059122;28;20104;-72
2021/03/04 01:05:45;;;;;;;47.70;31.92;;;7.00;70.10;;;;;;5058883;28;20406;-72
2021/03/04 01:08:10;;;;;;;63.88;33.08;;;7.00;70.00;;;;;;5057792;28;20120;-72
2021/03/04 01:10:38;;;;;;;45.40;31.35;;;7.00;70.30;;;;;;5058843;28;20075;-72
2021/03/04 01:13:04;;;;;;;54.80;32.33;;;7.00;69.90;;;;;;5058663;28;20154;-72
2021/03/04 01:15:32;;;;;;;47.67;31.20;;;7.00;69.90;;;;;;5059160;28;20104;-72
2021/03/04 01:17:58;;;;;;;51.00;32.28;;;7.00;69.90;;;;;;5058651;28;20116;-72
2021/03/04 01:20:24;;;;;;;51.13;32.63;;;7.10;69.80;;;;;;5058537;28;20126;-72
2021/03/04 01:22:50;;;;;;;51.28;31.15;;;7.10;69.80;;;;;;5058554;28;20044;-72
2021/03/04 01:25:17;;;;;;;48.42;31.88;;;7.10;69.70;;;;;;5058590;28;20443;-72
2021/03/04 01:27:43;;;;;;;49.45;31.35;;;7.10;69.80;;;;;;5058511;28;20021;-72
2021/03/04 01:30:11;;;;;;;53.90;31.95;;;7.10;69.80;;;;;;5058472;28;20027;-72
2021/03/04 01:32:37;;;;;;;52.53;32.08;;;7.10;69.70;;;;;;5058459;28;20058;-72
2021/03/04 01:35:05;;;;;;;53.53;31.83;;;7.10;69.70;;;;;;5058412;28;20025;-72
2021/03/04 01:37:30;;;;;;;48.67;31.98;;;7.10;69.50;;;;;;5058270;28;20036;-72
2021/03/04 01:39:56;;;;;;;52.75;31.92;;;7.10;69.70;;;;;;5058298;28;20029;-72
2021/03/04 01:42:22;;;;;;;54.70;33.17;;;7.10;69.90;;;;;;5058544;28;20029;-72
2021/03/04 01:44:48;;;;;;;53.80;32.75;;;7.10;70.00;;;;;;5058103;28;20038;-72
2021/03/04 01:47:14;;;;;;;50.70;31.77;;;7.10;69.90;;;;;;5058347;28;20035;-72
2021/03/04 01:49:40;;;;;;;55.40;34.20;;;7.10;70.10;;;;;;5058033;28;20064;-72
2021/03/04 01:52:07;;;;;;;45.17;31.35;;;7.00;70.20;;;;;;5058306;28;20025;-72
2021/03/04 01:54:33;;;;;;;49.58;32.58;;;7.00;70.10;;;;;;5057928;28;20021;-72
2021/03/04 01:56:59;;;;;;;54.88;34.15;;;7.00;70.10;;;;;;5058265;28;20028;-72
2021/03/04 01:59:25;;;;;;;54.65;31.40;;;7.00;70.50;;;;;;5056809;28;20032;-72
2021/03/04 02:01:50;;;;;;;50.97;31.40;;;7.00;70.50;;;;;;5057848;28;20021;-72
2021/03/04 02:04:16;;;;;;;50.92;33.25;;;7.00;70.70;;;;;;5057774;28;20425;-73
2021/03/04 02:06:48;;;;;;;53.03;33.15;;;7.00;70.50;;;;;;5057635;28;20465;-74
2021/03/04 02:09:18;;;;;;;54.35;32.58;;;7.00;70.40;;;;;;5057991;28;20021;-74
2021/03/04 02:11:53;;;;;;;51.25;33.55;;;7.00;70.10;;;;;;5057635;28;20047;-74
2021/03/04 02:14:32;;;;;;;49.67;31.88;;;7.00;70.20;;;;;;5057602;28;20386;-74
2021/03/04 02:17:04;;;;;;;51.20;33.55;;;6.90;70.60;;;;;;5057691;28;20033;-74
2021/03/04 02:19:57;;;;;;;51.50;32.50;;;6.80;70.50;;;;;;5057360;28;20068;-74
2021/03/04 02:22:46;;;;;;;46.45;29.70;;;6.80;70.10;;;;;;5057357;28;20032;-74
2021/03/04 02:25:21;;;;;;;46.22;30.00;;;6.80;70.90;;;;;;5057683;28;20017;-72
2021/03/04 02:27:49;;;;;;;45.95;27.13;;;6.80;71.00;;;;;;5057513;28;20070;-72
2021/03/04 02:30:19;;;;;;;46.35;27.50;;;6.80;71.10;;;;;;5057635;28;20031;-72
2021/03/04 02:32:48;;;;;;;45.72;27.77;;;6.70;71.20;;;;;;5057484;28;20017;-72
2021/03/04 02:35:21;;;;;;;50.88;30.20;;;6.70;71.40;;;;;;5057260;28;20355;-72
2021/03/04 02:37:51;;;;;;;47.95;28.15;;;6.60;71.70;;;;;;5057163;28;20029;-72
2021/03/04 02:40:20;;;;;;;44.95;25.50;;;6.60;71.80;;;;;;5057452;28;20061;-73
2021/03/04 02:42:46;;;;;;;41.60;27.50;;;6.50;72.10;;;;;;5057033;28;20021;-74
2021/03/04 02:45:15;;;;;;;46.28;28.73;;;6.40;72.50;;;;;;5057340;28;20087;-74
2021/03/04 02:47:41;;;;;;;46.72;30.13;;;6.40;72.70;;;;;;5057239;28;20028;-74
2021/03/04 02:50:09;;;;;;;49.03;32.75;;;6.40;72.40;;;;;;5056916;28;20025;-72
2021/03/04 02:52:36;;;;;;;46.22;30.70;;;6.40;72.20;;;;;;5057155;28;20064;-72
2021/03/04 02:55:02;;;;;;;45.88;29.80;;;6.40;73.10;;;;;;5055847;28;20410;-72
2021/03/04 02:57:29;;;;;;;44.25;28.88;;;6.30;73.10;;;;;;5056876;28;20028;-72
2021/03/04 02:59:55;;;;;;;44.78;28.17;;;6.30;72.90;;;;;;5056852;28;20413;-72
2021/03/04 03:02:22;;;;;;;49.78;30.05;;;6.30;72.90;;;;;;5055659;28;20363;-73
2021/03/04 03:04:48;;;;;;;53.65;31.45;;;6.30;72.50;;;;;;5056804;28;20405;-74
2021/03/04 03:07:15;;;;;;;43.05;28.02;;;6.20;72.40;;;;;;5056702;28;20021;-74
2021/03/04 03:09:44;;;;;;;43.47;28.38;;;6.30;72.20;;;;;;5056895;28;20036;-74
2021/03/04 03:12:11;;;;;;;45.78;28.63;;;6.20;73.00;;;;;;5056891;28;20294;-74
2021/03/04 03:14:37;;;;;;;54.28;31.73;;;6.20;73.20;;;;;;5056653;28;20033;-74
2021/03/04 03:17:04;;;;;;;50.40;30.35;;;6.10;73.20;;;;;;5056768;28;20025;-74
2021/03/04 03:19:31;;;;;;;51.75;28.55;;;6.10;73.10;;;;;;5056541;28;20127;-74
2021/03/04 03:21:56;;;;;;;46.05;28.17;;;6.10;73.20;;;;;;5056580;28;20429;-74
2021/03/04 03:24:23;;;;;;;44.08;28.50;;;6.10;73.40;;;;;;5056535;28;20064;-74
2021/03/04 03:26:49;;;;;;;48.80;28.33;;;6.00;73.60;;;;;;5056503;28;20079;-74
2021/03/04 03:29:15;;;;;;;40.25;28.38;;;6.00;73.80;;;;;;5056522;28;20029;-74
2021/03/04 03:31:41;;;;;;;54.22;32.50;;;6.00;73.80;;;;;;5056473;28;20059;-74
2021/03/04 03:34:09;;;;;;;51.67;31.20;;;6.00;73.40;;;;;;5056430;28;20017;-74
2021/03/04 03:36:36;;;;;;;49.28;30.85;;;6.00;73.20;;;;;;5056754;28;20029;-74
2021/03/04 03:39:06;;;;;;;44.28;28.90;;;6.00;73.20;;;;;;5056998;28;20025;-74
2021/03/04 03:41:34;;;;;;;47.75;28.58;;;6.00;73.60;;;;;;5056685;28;20028;-74
2021/03/04 03:44:00;;;;;;;48.75;30.13;;;5.90;73.50;;;;;;5056466;28;20377;-74
2021/03/04 03:46:31;;;;;;;45.28;29.90;;;5.90;73.50;;;;;;5055165;28;20060;-74
2021/03/04 03:49:02;;;;;;;42.75;28.45;;;5.90;73.50;;;;;;5056658;28;20029;-74
2021/03/04 03:51:29;;;;;;;42.75;28.25;;;5.80;73.70;;;;;;5056480;28;20017;-74
2021/03/04 03:53:58;;;;;;;51.17;30.75;;;5.80;73.60;;;;;;5056230;28;20028;-74
2021/03/04 03:56:24;;;;;;;51.15;29.08;;;5.80;73.70;;;;;;5056389;28;20032;-74
2021/03/04 03:58:51;;;;;;;53.50;31.55;;;5.80;74.00;;;;;;5056229;28;20029;-74
2021/03/04 04:01:18;;;;;;;47.40;31.17;;;5.80;74.20;;;;;;5056205;28;20139;-74
2021/03/04 04:03:44;;;;;;;47.05;30.98;;;5.80;74.10;;;;;;5056146;28;20416;-74
2021/03/04 04:06:09;;;;;;;47.50;30.73;;;5.80;74.00;;;;;;5056423;28;20075;-74
2021/03/04 04:08:35;;;;;;;50.13;29.70;;;5.80;74.10;;;;;;5056150;28;20408;-74
2021/03/04 04:11:02;;;;;;;50.10;30.55;;;5.70;74.20;;;;;;5056098;28;20313;-74
2021/03/04 04:13:27;;;;;;;57.13;32.20;;;5.80;74.40;;;;;;5056088;28;20032;-74
2021/03/04 04:15:53;;;;;;;53.47;31.70;;;5.80;74.40;;;;;;5056462;28;20364;-74
2021/03/04 04:18:20;;;;;;;48.80;31.92;;;5.80;74.40;;;;;;5055875;28;20329;-74
2021/03/04 04:20:46;;;;;;;54.03;32.67;;;5.70;74.50;;;;;;5056076;28;20132;-74
2021/03/04 04:23:13;;;;;;;55.38;31.92;;;5.80;74.50;;;;;;5059236;28;20025;-74
2021/03/04 04:25:51;;;;;;;57.17;33.60;;;5.70;74.80;;;;;;5059805;28;20139;-72
2021/03/04 04:28:17;;;;;;;63.05;36.30;;;5.70;74.60;;;;;;5059913;28;20078;-72
2021/03/04 04:30:43;;;;;;;66.68;39.97;;;5.70;74.80;;;;;;5059627;28;20114;-72
2021/03/04 04:33:11;;;;;;;81.40;43.00;;;5.70;74.90;;;;;;5059548;28;20440;-72
2021/03/04 04:35:36;;;;;;;68.25;38.97;;;5.70;74.40;;;;;;5059686;28;20132;-73
2021/03/04 04:38:02;;;;;;;61.58;36.00;;;5.60;74.40;;;;;;5059455;28;20097;-74
2021/03/04 04:40:28;;;;;;;66.20;39.67;;;5.50;74.80;;;;;;5059430;28;20048;-74
2021/03/04 04:42:54;;;;;;;60.78;35.55;;;5.50;75.00;;;;;;5058221;28;20036;-74
2021/03/04 04:45:19;;;;;;;62.17;37.13;;;5.50;75.10;;;;;;5059440;28;20032;-74
2021/03/04 04:47:45;;;;;;;59.42;34.80;;;5.50;75.10;;;;;;5059234;28;20036;-74
2021/03/04 04:50:11;;;;;;;58.42;34.30;;;5.50;75.10;;;;;;5059314;28;20356;-74
2021/03/04 04:52:37;;;;;;;54.15;34.03;;;5.50;75.50;;;;;;5059414;28;20041;-74
2021/03/04 04:55:03;;;;;;;66.82;35.78;;;5.50;75.60;;;;;;5059142;28;20091;-74
2021/03/04 04:57:29;;;;;;;72.13;36.03;;;5.50;75.70;;;;;;5059466;28;20032;-74
2021/03/04 04:59:54;;;;;;;93.35;36.78;;;5.50;75.80;;;;;;5059353;28;20058;-74
2021/03/04 05:02:20;;;;;;;63.63;36.30;;;5.50;75.70;;;;;;5058931;28;20413;-74
2021/03/04 05:04:46;;;;;;;54.58;32.95;;;5.50;75.60;;;;;;5058958;28;20079;-74
2021/03/04 05:07:11;;;;;;;60.45;33.47;;;5.50;75.60;;;;;;5059042;28;20104;-74
2021/03/04 05:09:37;;;;;;;56.10;34.33;;;5.50;75.90;;;;;;5058931;28;20064;-74
2021/03/04 05:12:03;;;;;;;58.65;36.75;;;5.50;76.10;;;;;;5058816;28;20053;-74
2021/03/04 05:14:29;;;;;;;65.75;35.50;;;5.40;76.40;;;;;;5057628;28;20021;-74
2021/03/04 05:16:54;;;;;;;50.95;31.20;;;5.30;76.50;;;;;;5058780;28;20090;-74
2021/03/04 05:19:20;;;;;;;55.67;33.03;;;5.30;76.70;;;;;;5058488;28;20067;-74
2021/03/04 05:21:45;;;;;;;49.97;31.70;;;5.30;76.50;;;;;;5058672;28;20063;-74
2021/03/04 05:24:12;;;;;;;54.08;33.20;;;5.30;76.50;;;;;;5058818;28;20038;-74
2021/03/04 05:26:38;;;;;;;57.75;34.33;;;5.30;76.80;;;;;;5058515;28;20029;-72
2021/03/04 05:29:04;;;;;;;59.78;35.88;;;5.30;77.00;;;;;;5058668;28;20021;-72
2021/03/04 05:31:30;;;;;;;61.50;35.63;;;5.30;77.10;;;;;;5058670;28;20080;-72
2021/03/04 05:33:56;;;;;;;53.58;32.53;;;5.30;77.30;;;;;;5057048;28;20028;-72
2021/03/04 05:36:21;;;;;;;52.20;32.42;;;5.40;77.10;;;;;;5057383;28;20029;-72
2021/03/04 05:38:47;;;;;;;58.97;33.28;;;5.40;76.80;;;;;;5058323;28;20029;-72
2021/03/04 05:41:17;;;;;;;53.05;32.45;;;5.40;76.90;;;;;;5058549;28;20464;-73
2021/03/04 05:43:42;;;;;;;51.13;31.10;;;5.40;76.80;;;;;;5058178;28;20029;-74
2021/03/04 05:46:08;;;;;;;44.63;29.08;;;5.30;76.50;;;;;;5058634;28;20379;-74
2021/03/04 05:48:37;;;;;;;50.53;32.17;;;5.30;76.30;;;;;;5058208;28;20029;-74
2021/03/04 05:51:06;;;;;;;48.17;30.40;;;5.30;76.20;;;;;;5058124;28;20025;-74
2021/03/04 05:53:32;;;;;;;47.17;29.38;;;5.30;76.20;;;;;;5057985;28;20117;-74
2021/03/04 05:56:00;;;;;;;49.45;29.83;;;5.40;76.00;;;;;;5057984;28;20413;-74
2021/03/04 05:58:27;;;;;;;52.70;31.35;;;5.40;75.80;;;;;;5056901;28;20033;-74
2021/03/04 06:00:53;;;;;;;48.40;30.70;;;5.40;76.00;;;;;;5057898;28;20111;-74
2021/03/04 06:03:20;;;;;;;54.35;33.45;;;5.50;76.00;;;;;;5057776;28;20079;-74
2021/03/04 06:05:48;;;;;;;52.58;33.75;;;5.50;75.90;;;;;;5058041;28;20040;-74
2021/03/04 06:08:14;;;;;;;60.17;32.88;;;5.50;76.00;;;;;;5057757;28;20046;-74
2021/03/04 06:10:39;;;;;;;59.13;35.55;;;5.50;75.90;;;;;;5057654;28;20036;-74
2021/03/04 06:13:05;;;;;;;56.92;33.80;;;5.50;76.10;;;;;;5057852;28;20066;-74
2021/03/04 06:15:31;;;;;;;56.58;34.08;;;5.50;76.10;;;;;;5058037;28;20100;-74
2021/03/04 06:17:58;;;;;;;53.72;33.40;;;5.60;76.00;;;;;;5057607;28;20056;-74
2021/03/04 06:20:37;;;;;;;98.55;37.13;;;5.60;76.30;;;;;;5057313;28;20429;-72
2021/03/04 06:23:04;;;;;;;549.53;59.95;;;5.60;76.40;;;;;;5057696;28;20100;-72
2021/03/04 06:25:30;;;;;;;1014.25;105.18;;;5.70;76.30;;;;;;5057410;28;20032;-72
2021/03/04 06:27:56;;;;;;;267.65;46.13;;;5.70;76.60;;;;;;5057372;28;20032;-72
2021/03/04 06:30:22;;;;;;;65.28;36.03;;;5.70;76.90;;;;;;5057313;28;20320;-72
2021/03/04 06:33:00;;;;;;;53.03;35.22;;;5.80;76.50;;;;;;5057248;28;20051;-73
2021/03/04 06:35:43;;;;;;;58.63;36.05;;;5.80;76.40;;;;;;5057551;28;20360;-74
2021/03/04 06:38:19;;;;;;;55.85;32.85;;;5.80;76.70;;;;;;5057482;28;20036;-74
2021/03/04 06:40:46;;;;;;;57.08;31.48;;;5.90;77.00;;;;;;5057519;28;20476;-74
2021/03/04 06:43:23;;;;;;;49.72;32.70;;;6.00;77.10;;;;;;5057014;28;20013;-74
2021/03/04 06:45:49;;;;;;;51.92;33.78;;;6.10;77.30;;;;;;5056725;28;20131;-72
2021/03/04 06:48:17;;;;;;;55.90;33.40;;;6.20;77.30;;;;;;5057041;28;20070;-72
2021/03/04 06:50:58;;;;;;;53.50;31.65;;;6.30;77.30;;;;;;5057099;28;20048;-72
2021/03/04 06:53:25;;;;;;;53.13;33.08;;;6.40;77.00;;;;;;5056975;28;20017;-73
2021/03/04 06:55:52;;;;;;;51.15;32.10;;;6.50;76.70;;;;;;5057280;28;20130;-74
2021/03/04 06:58:35;;;;;;;56.95;33.00;;;6.60;76.30;;;;;;5056896;28;20021;-74
2021/03/04 07:01:19;;;;;;;51.90;31.58;;;6.70;76.00;;;;;;5057144;28;20035;-74
2021/03/04 07:03:50;;;;;;;61.03;32.80;;;6.90;75.40;;;;;;5056776;28;20029;-74
2021/03/04 07:06:18;;;;;;;56.42;35.63;;;7.10;74.70;;;;;;5057059;28;20040;-74
2021/03/04 07:08:49;;;;;;;58.30;36.17;;;7.20;73.60;;;;;;5056798;28;20067;-74
2021/03/04 07:11:19;;;;;;;56.22;35.63;;;7.30;75.70;;;;;;5056959;28;20025;-74
2021/03/04 07:13:46;;;;;;;52.22;31.88;;;7.40;75.30;;;;;;5056686;28;20045;-74
2021/03/04 07:16:27;;;;;;;58.80;36.08;;;7.50;76.30;;;;;;5056635;28;20451;-74
2021/03/04 07:19:00;;;;;;;49.83;34.17;;;7.60;73.70;;;;;;5055367;28;20052;-72
2021/03/04 07:21:41;;;;;;;51.60;32.83;;;7.70;72.90;;;;;;5056645;28;20320;-72
2021/03/04 07:24:08;;;;;;;56.17;35.30;;;7.80;71.20;;;;;;5056569;28;20413;-72
2021/03/04 07:26:36;;;;;;;55.83;34.42;;;7.80;71.20;;;;;;5056466;28;20116;-72
2021/03/04 07:29:04;;;;;;;57.08;36.00;;;7.90;71.60;;;;;;5056526;28;20017;-72
2021/03/04 07:31:30;;;;;;;56.95;34.38;;;8.00;69.40;;;;;;5056696;28;20075;-72
2021/03/04 07:33:57;;;;;;;49.05;32.30;;;8.00;69.10;;;;;;5056372;28;20017;-72
2021/03/04 07:36:24;;;;;;;54.95;33.08;;;8.10;69.00;;;;;;5056825;28;20405;-72
2021/03/04 07:38:57;;;;;;;52.78;33.88;;;8.20;69.60;;;;;;5056427;28;20017;-72
2021/03/04 07:41:43;;;;;;;56.10;35.33;;;8.40;69.10;;;;;;5056530;28;20151;-72
2021/03/04 07:44:21;;;;;;;63.50;35.88;;;8.50;69.40;;;;;;5056540;28;20025;-72
2021/03/04 07:46:58;;;;;;;59.28;34.75;;;8.80;67.70;;;;;;5056566;28;20033;-72
2021/03/04 07:49:45;;;;;;;55.40;33.65;;;8.90;68.90;;;;;;5056612;28;20021;-72
2021/03/04 07:52:11;;;;;;;;;;;9.10;68.10;;;;;;5056720;28;20028;-72
2021/03/04 07:54:38;;;;;;;49.15;33.53;;;9.30;69.10;;;;;;5054995;28;19948;-72
2021/03/04 07:57:09;;;;;;;55.13;34.47;;;9.40;69.50;;;;;;5059599;28;20536;-73
2021/03/04 07:59:36;;;;;;;58.40;37.67;;;9.60;68.90;;;;;;5060393;28;20029;-72
2021/03/04 08:02:03;;;;;;;55.22;35.75;;;9.70;66.20;;;;;;5060322;28;20075;-73
2021/03/04 08:04:30;;;;;;;53.15;35.00;;;9.80;66.00;;;;;;5060039;28;20033;-74
2021/03/04 08:06:57;;;;;;;52.55;36.00;;;9.80;66.50;;;;;;5058970;28;20492;-74
2021/03/04 08:09:28;;;;;;;50.80;33.95;;;9.80;66.00;;;;;;5059020;28;20033;-74
2021/03/04 08:12:23;;;;;;;46.70;34.05;;;10.00;65.50;;;;;;5060143;28;20021;-74
2021/03/04 08:14:57;;;;;;;41.25;30.92;;;10.10;66.70;;;;;;5059612;28;20041;-74
2021/03/04 08:17:34;;;;;;;43.55;31.83;;;10.20;67.80;;;;;;5060089;28;20029;-74
2021/03/04 08:20:18;;;;;;;44.08;31.83;;;10.30;65.50;;;;;;5059781;28;20053;-73
2021/03/04 08:22:50;;;;;;;49.83;32.58;;;10.40;65.60;;;;;;5059693;28;20432;-74
2021/03/04 08:25:31;;;;;;;46.13;32.05;;;10.50;65.60;;;;;;5059999;28;20025;-72
2021/03/04 08:28:01;;;;;;;42.13;31.02;;;10.60;65.90;;;;;;5059597;28;20036;-72
2021/03/04 08:30:37;;;;;;;42.20;29.85;;;10.70;64.00;;;;;;5059982;28;20290;-72
2021/03/04 08:33:13;;;;;;;39.72;28.60;;;10.70;64.70;;;;;;5059573;28;20070;-72
2021/03/04 08:35:42;;;;;;;35.60;27.25;;;10.90;65.20;;;;;;5059674;28;20082;-72
2021/03/04 08:38:11;;;;;;;37.20;27.98;;;11.20;64.50;;;;;;5059490;28;20021;-72
2021/03/04 08:40:40;;;;;;;40.25;27.85;;;11.60;62.10;;;;;;5059447;28;20035;-72
2021/03/04 08:43:14;;;;;;;41.80;30.08;;;11.80;61.10;;;;;;5059330;28;20068;-72
2021/03/04 08:45:41;;;;;;;40.10;29.30;;;11.80;60.70;;;;;;5059276;28;20037;-72
2021/03/04 08:48:08;;;;;;;39.05;28.75;;;12.00;60.90;;;;;;5059353;28;20025;-72
2021/03/04 08:50:41;;;;;;;38.55;28.95;;;12.20;59.90;;;;;;5059245;28;20036;-72
2021/03/04 08:53:14;;;;;;;41.58;28.45;;;12.40;60.10;;;;;;5059272;28;20043;-72
2021/03/04 08:55:46;;;;;;;40.40;29.60;;;12.40;60.10;;;;;;5059404;28;20102;-72
2021/03/04 08:58:12;;;;;;;41.15;30.85;;;12.40;61.20;;;;;;5059123;28;20032;-72
2021/03/04 09:00:38;;;;;;;40.33;30.25;;;12.40;60.20;;;;;;5059061;28;20031;-72
2021/03/04 09:03:10;;;;;;;42.60;30.77;;;12.50;59.40;;;;;;5059066;28;20096;-72
2021/03/04 09:05:36;;;;;;;45.20;32.55;;;12.40;59.30;;;;;;5059039;28;20025;-72
2021/03/04 09:08:10;;;;;;;44.72;31.38;;;12.10;59.70;;;;;;5058316;28;20021;-72
2021/03/04 09:10:51;;;;;;;43.47;32.53;;;11.90;61.40;;;;;;5059187;28;20104;-72
2021/03/04 09:13:22;;;;;;;43.75;31.17;;;12.10;60.70;;;;;;5058832;28;20053;-72
2021/03/04 09:15:55;;;;;;;42.70;31.30;;;12.50;59.10;;;;;;5059380;28;20401;-72
2021/03/04 09:18:23;;;;;;;44.33;33.45;;;12.90;59.90;;;;;;5058570;28;20017;-72
2021/03/04 09:20:53;;;;;;;45.15;32.17;;;13.00;59.10;;;;;;5058733;28;20087;-72
2021/03/04 09:23:23;;;;;;;47.78;32.67;;;13.00;59.50;;;;;;5058843;28;20032;-72
2021/03/04 09:25:57;;;;;;;42.58;32.90;;;13.50;58.30;;;;;;5058551;28;20031;-72
2021/03/04 09:28:24;;;;;;;46.65;33.60;;;13.70;58.70;;;;;;5058673;28;20029;-72
2021/03/04 09:30:50;;;;;;;46.47;34.42;;;13.80;57.40;;;;;;5058570;28;20055;-72
2021/03/04 09:33:24;;;;;;;41.85;32.80;;;14.00;56.60;;;;;;5058433;28;20427;-72
2021/03/04 09:35:57;;;;;;;44.10;32.90;;;14.20;57.60;;;;;;5058460;28;20313;-72
2021/03/04 09:38:24;;;;;;;40.50;31.23;;;14.10;56.10;;;;;;5058348;28;20033;-72
2021/03/04 09:40:50;;;;;;;44.45;32.00;;;14.20;57.50;;;;;;5058592;28;20063;-72
2021/03/04 09:43:18;;;;;;;46.83;32.95;;;14.30;56.30;;;;;;5058360;28;20391;-72
2021/03/04 09:45:45;;;;;;;43.78;33.33;;;14.10;56.00;;;;;;5058616;28;20344;-72
2021/03/04 09:48:11;;;;;;;47.67;33.88;;;14.20;55.80;;;;;;5058164;28;20029;-72
2021/03/04 09:50:37;;;;;;;40.70;31.80;;;14.40;54.80;;;;;;5058180;28;20086;-72
2021/03/04 09:53:08;;;;;;;41.03;32.88;;;14.50;56.00;;;;;;5058036;28;20029;-72
2021/03/04 09:55:39;;;;;;;43.72;33.05;;;14.70;54.70;;;;;;5058500;28;20024;-72
2021/03/04 09:58:20;;;;;;;43.55;31.48;;;15.00;54.90;;;;;;5058210;28;20060;-72
2021/03/04 10:00:54;;;;;;;48.13;32.97;;;15.30;53.60;;;;;;5058236;28;20071;-72
2021/03/04 10:03:21;;;;;;;45.05;32.28;;;15.30;54.70;;;;;;5057851;28;20021;-72
2021/03/04 10:05:50;;;;;;;41.08;31.20;;;15.30;54.90;;;;;;5057882;28;20029;-72
2021/03/04 10:08:17;;;;;;;40.53;31.15;;;15.30;53.70;;;;;;5057840;28;20028;-72
2021/03/04 10:10:44;;;;;;;44.75;32.75;;;15.20;53.90;;;;;;5057575;28;20436;-72
2021/03/04 10:13:10;;;;;;;40.00;32.67;;;15.30;52.80;;;;;;5044471;28;20061;-72
2021/03/04 10:15:42;;;;;;;38.35;31.05;;;15.10;54.30;;;;;;5054112;28;20040;-72
2021/03/04 10:18:12;;;;;;;42.72;31.15;;;14.90;54.00;;;;;;5057665;28;20177;-72
2021/03/04 10:20:41;;;;;;;42.75;32.63;;;14.90;55.10;;;;;;5056523;28;20041;-72
2021/03/04 10:23:08;;;;;;;39.30;31.92;;;15.00;54.40;;;;;;5057510;28;20029;-72
2021/03/04 10:25:33;;;;;;;38.42;30.65;;;15.30;53.40;;;;;;5057730;28;20372;-72
2021/03/04 10:27:59;;;;;;;41.42;31.85;;;15.30;54.30;;;;;;5057358;28;20159;-72
2021/03/04 10:30:29;;;;;;;42.22;29.95;;;15.40;54.50;;;;;;5057355;28;20100;-72
2021/03/04 10:32:55;;;;;;;52.65;32.10;;;15.60;52.70;;;;;;5057282;28;20114;-72
2021/03/04 10:35:27;;;;;;;37.42;30.27;;;15.80;52.30;;;;;;5057407;28;20025;-72
2021/03/04 10:37:53;;;;;;;42.28;32.35;;;15.70;52.50;;;;;;5057398;28;20079;-72
2021/03/04 10:40:21;;;;;;;40.58;30.05;;;15.80;51.50;;;;;;5057193;28;20028;-72
2021/03/04 10:42:47;;;;;;;39.25;29.95;;;15.70;52.40;;;;;;5057099;28;20099;-72
2021/03/04 10:45:15;;;;;;;37.83;29.70;;;15.80;51.50;;;;;;5057346;28;20052;-72
2021/03/04 10:47:42;;;;;;;38.92;30.70;;;15.70;51.80;;;;;;5057097;28;20040;-72
2021/03/04 10:50:10;;;;;;;47.58;31.83;;;16.00;52.40;;;;;;5057110;28;20075;-72
2021/03/04 10:52:36;;;;;;;39.92;29.77;;;16.20;51.70;;;;;;5056963;28;20025;-72
2021/03/04 10:55:04;;;;;;;40.90;30.63;;;16.30;52.60;;;;;;5057023;28;20363;-72
2021/03/04 10:57:30;;;;;;;43.83;31.77;;;16.30;52.20;;;;;;5057133;28;20028;-72
2021/03/04 10:59:56;;;;;;;38.80;30.58;;;16.20;52.80;;;;;;5056921;28;20409;-72
2021/03/04 11:02:22;;;;;;;39.90;30.67;;;15.80;53.60;;;;;;5057058;28;20056;-72
2021/03/04 11:04:48;;;;;;;36.70;30.15;;;15.60;53.80;;;;;;5057254;28;20024;-72
2021/03/04 11:07:14;;;;;;;39.25;30.35;;;14.90;54.60;;;;;;5056928;28;20409;-72
2021/03/04 11:09:40;;;;;;;41.85;30.40;;;14.20;57.20;;;;;;5056832;28;20025;-72
2021/03/04 11:12:06;;;;;;;44.03;29.65;;;13.90;58.40;;;;;;5056753;28;20024;-72
2021/03/04 11:14:32;;;;;;;39.35;31.05;;;13.40;59.40;;;;;;5056688;28;20025;-72
2021/03/04 11:16:58;;;;;;;48.25;31.10;;;13.40;61.50;;;;;;5056695;28;20447;-72
2021/03/04 11:19:24;;;;;;;42.28;31.42;;;13.50;61.20;;;;;;5056543;28;20182;-72
2021/03/04 11:21:49;;;;;;;42.20;31.63;;;13.70;61.30;;;;;;5056553;28;20033;-72
2021/03/04 11:24:16;;;;;;;42.75;32.25;;;13.50;61.40;;;;;;5056460;28;20037;-72
2021/03/04 11:26:42;;;;;;;42.55;31.00;;;13.50;61.70;;;;;;5056475;28;20020;-72
2021/03/04 11:29:08;;;;;;;49.92;32.47;;;13.10;62.40;;;;;;5056720;28;20025;-72
2021/03/04 11:31:36;;;;;;;41.60;30.67;;;13.00;63.80;;;;;;5061514;28;20074;-72
2021/03/04 11:34:03;;;;;;;44.20;33.70;;;13.10;62.80;;;;;;5063096;28;20021;-72
2021/03/04 11:36:30;;;;;;;43.05;31.27;;;13.50;63.50;;;;;;5062056;28;20329;-72
2021/03/04 11:38:56;;;;;;;45.67;31.40;;;13.60;61.50;;;;;;5063148;28;20029;-72
2021/03/04 11:41:22;;;;;;;46.70;32.47;;;13.60;63.30;;;;;;5063656;28;20021;-72
2021/03/04 11:43:48;;;;;;;41.78;31.45;;;13.60;62.80;;;;;;5062998;28;20029;-72
2021/03/04 11:46:13;;;;;;;41.80;32.33;;;13.70;62.70;;;;;;5063515;28;20082;-72
2021/03/04 11:48:39;;;;;;;47.80;32.08;;;14.20;62.00;;;;;;5063006;28;20036;-72
2021/03/04 11:51:06;;;;;;;50.17;32.28;;;14.30;60.10;;;;;;5063079;28;20053;-72
2021/03/04 11:53:32;;;;;;;39.50;30.02;;;14.40;59.40;;;;;;5062931;28;20017;-72
2021/03/04 11:55:59;;;;;;;42.60;32.13;;;14.30;59.60;;;;;;5063302;28;20052;-72
2021/03/04 11:58:26;;;;;;;43.08;30.58;;;14.40;59.80;;;;;;5062986;28;20017;-72
2021/03/04 12:00:52;;;;;;;44.60;30.92;;;14.00;60.70;;;;;;5062938;28;20104;-72
2021/03/04 12:03:20;;;;;;;41.65;30.27;;;13.80;61.80;;;;;;5062893;28;20032;-72
2021/03/04 12:05:46;;;;;;;47.00;33.08;;;13.50;61.80;;;;;;5062963;28;20320;-72
2021/03/04 12:08:12;;;;;;;41.03;30.63;;;13.20;62.80;;;;;;5062846;28;20029;-72
2021/03/04 12:10:37;;;;;;;41.35;31.45;;;13.00;63.40;;;;;;5062769;28;20047;-72
2021/03/04 12:13:05;;;;;;;45.63;32.05;;;12.70;63.70;;;;;;5062851;28;20017;-72
2021/03/04 12:15:31;;;;;;;46.25;31.55;;;12.40;64.20;;;;;;5063203;28;20025;-72
2021/03/04 12:17:57;;;;;;;47.97;32.50;;;12.20;64.10;;;;;;5062032;28;20120;-72
2021/03/04 12:20:23;;;;;;;47.25;32.92;;;12.30;65.50;;;;;;5062669;28;20060;-72
2021/03/04 12:22:49;;;;;;;47.95;31.17;;;12.40;65.20;;;;;;5062583;28;20040;-72
2021/03/04 12:25:15;;;;;;;45.70;32.80;;;12.40;64.80;;;;;;5062732;28;20025;-72
2021/03/04 12:27:40;;;;;;;45.38;31.33;;;12.40;64.00;;;;;;5062644;28;20035;-72
2021/03/04 12:30:07;;;;;;;52.00;33.00;;;12.50;65.00;;;;;;5062798;28;20032;-72
2021/03/04 12:32:36;;;;;;;45.72;33.03;;;12.80;63.60;;;;;;5062809;28;20099;-72
2021/03/04 12:35:04;;;;;;;48.05;32.80;;;13.10;63.90;;;;;;5062643;28;20402;-73
2021/03/04 12:37:30;;;;;;;45.97;31.52;;;13.20;62.90;;;;;;5062895;28;20025;-72